Time;durP1;ratioP1;P1;durP2;ratioP2;P2;SDS_P1;SDS_P2;PMS_P1;PMS_P2;Temp;Humidity;BMP_temperature;BMP_pressure;BME280_temperature;BME280_humidity;BME280_pressure;Samples;Min_cycle;Max_cycle;Signal;HPM_P1;HPM_P2
2023/10/09 00:02:14;;;;;;;11.50;2.80;;;;;;;9.45;100.00;101694.38;7387451;19;20512;-37
2023/10/09 00:04:45;;;;;;;4.90;2.80;;;;;;;9.46;100.00;101670.41;7365842;19;20391;-36
2023/10/09 00:07:16;;;;;;;5.10;2.70;;;;;;;9.42;100.00;101661.59;7386842;19;20400;-37
2023/10/09 00:09:50;;;;;;;4.40;2.30;;;;;;;9.41;100.00;101661.50;7364860;19;20395;-36
2023/10/09 00:12:22;;;;;;;6.37;2.57;;;;;;;9.40;100.00;101642.59;7386871;19;20471;-35
2023/10/09 00:14:55;;;;;;;6.47;2.70;;;;;;;9.40;100.00;101636.53;7364218;19;20416;-35
2023/10/09 00:17:31;;;;;;;5.90;2.60;;;;;;;9.37;100.00;101623.44;7389098;19;20384;-36
2023/10/09 00:20:17;;;;;;;9.10;2.70;;;;;;;9.32;100.00;101616.34;7364244;19;20402;-37
2023/10/09 00:22:47;;;;;;;10.13;2.70;;;;;;;9.32;100.00;101611.22;7391911;19;20438;-36
2023/10/09 00:25:23;;;;;;;7.53;2.70;;;;;;;9.30;100.00;101605.09;7373727;19;20417;-36
2023/10/09 00:27:52;;;;;;;12.10;3.10;;;;;;;9.25;100.00;101603.91;7395276;19;20383;-36
2023/10/09 00:30:29;;;;;;;4.73;2.30;;;;;;;9.28;100.00;101604.06;7371218;19;20395;-36
2023/10/09 00:33:07;;;;;;;4.20;2.17;;;;;;;9.29;100.00;101595.56;7393890;19;20426;-36
2023/10/09 00:35:46;;;;;;;18.93;2.63;;;;;;;9.26;100.00;101589.34;7372176;19;20507;-35
2023/10/09 00:38:23;;;;;;;5.23;2.43;;;;;;;9.25;100.00;101574.69;7393595;19;20939;-36
2023/10/09 00:41:04;;;;;;;7.73;2.70;;;;;;;9.20;100.00;101579.56;7372857;19;20425;-36
2023/10/09 00:43:35;;;;;;;5.37;2.00;;;;;;;9.18;100.00;101583.75;7398904;19;20771;-36
2023/10/09 00:46:11;;;;;;;6.43;2.70;;;;;;;9.15;100.00;101583.53;7375654;19;20506;-35
2023/10/09 00:48:42;;;;;;;5.57;2.50;;;;;;;9.13;100.00;101575.72;7396377;19;20415;-35
2023/10/09 00:51:18;;;;;;;4.67;1.93;;;;;;;9.13;100.00;101574.84;7370869;19;20468;-36
2023/10/09 00:53:51;;;;;;;4.03;2.20;;;;;;;9.14;100.00;101574.03;7396699;19;20407;-35
2023/10/09 00:56:38;;;;;;;6.57;2.30;;;;;;;9.16;100.00;101557.00;7372986;19;20419;-36
2023/10/09 00:59:14;;;;;;;5.63;2.40;;;;;;;9.13;100.00;101551.66;7372340;19;20939;-35
2023/10/09 01:01:55;;;;;;;5.07;2.50;;;;;;;9.09;100.00;101540.31;7391590;19;20486;-36
2023/10/09 01:04:32;;;;;;;6.30;2.57;;;;;;;9.10;100.00;101541.16;7368636;19;20427;-36
2023/10/09 01:07:09;;;;;;;8.67;2.23;;;;;;;9.10;100.00;101548.91;7395484;19;20418;-36
2023/10/09 01:09:43;;;;;;;5.23;2.30;;;;;;;9.04;100.00;101536.56;7372869;19;20435;-36
2023/10/09 01:12:19;;;;;;;8.70;2.57;;;;;;;9.07;100.00;101539.28;7396635;19;20439;-36
2023/10/09 01:14:55;;;;;;;5.30;2.73;;;;;;;9.02;100.00;101539.03;7372836;19;20438;-35
2023/10/09 01:17:35;;;;;;;6.83;3.23;;;;;;;9.02;100.00;101538.13;7396777;19;20431;-35
2023/10/09 01:20:14;;;;;;;5.43;2.23;;;;;;;9.03;100.00;101524.47;7372305;19;20954;-36
2023/10/09 01:22:45;;;;;;;3.87;2.03;;;;;;;9.01;100.00;101511.50;7395804;19;20467;-36
2023/10/09 01:25:18;;;;;;;12.77;2.70;;;;;;;8.99;100.00;101513.13;7374353;19;21024;-35
2023/10/09 01:27:48;;;;;;;7.30;2.00;;;;;;;8.99;100.00;101495.09;7395045;19;21023;-36
2023/10/09 01:30:18;;;;;;;4.80;2.07;;;;;;;8.97;100.00;101494.09;7373045;19;20427;-36
2023/10/09 01:32:47;;;;;;;4.87;2.23;;;;;;;8.99;100.00;101492.53;7395286;19;20441;-36
2023/10/09 01:35:21;;;;;;;5.10;2.10;;;;;;;8.97;100.00;101494.09;7373217;19;20822;-36
2023/10/09 01:37:51;;;;;;;4.73;2.43;;;;;;;8.95;100.00;101511.16;7395011;19;20407;-35
2023/10/09 01:40:37;;;;;;;4.30;2.10;;;;;;;8.93;100.00;101502.44;7373108;19;20415;-37
2023/10/09 01:43:09;;;;;;;5.70;1.80;;;;;;;8.90;100.00;101492.84;7395650;19;20443;-36
2023/10/09 01:45:42;;;;;;;6.27;3.00;;;;;;;8.94;100.00;101498.19;7373168;19;20432;-36
2023/10/09 01:48:14;;;;;;;3.53;2.00;;;;;;;8.93;100.00;101502.44;7395539;19;21031;-37
2023/10/09 01:50:46;;;;;;;4.60;2.10;;;;;;;8.89;100.00;101482.47;7372615;19;20451;-35
2023/10/09 01:53:17;;;;;;;4.00;2.23;;;;;;;8.86;100.00;101490.88;7395054;19;20471;-35
2023/10/09 01:55:52;;;;;;;4.57;2.00;;;;;;;8.87;100.00;101481.50;7372626;19;20502;-36
2023/10/09 01:58:27;;;;;;;5.97;2.50;;;;;;;8.88;100.00;101493.56;7397978;19;20491;-35
2023/10/09 02:01:01;;;;;;;5.97;2.30;;;;;;;8.92;100.00;101500.66;7370441;19;20521;-36
2023/10/09 02:03:36;;;;;;;4.43;1.90;;;;;;;8.90;100.00;101482.56;7394606;19;20395;-36
2023/10/09 02:06:24;;;;;;;7.00;2.10;;;;;;;8.86;100.00;101472.88;7372695;19;20808;-35
2023/10/09 02:08:56;;;;;;;7.10;2.50;;;;;;;8.88;100.00;101462.69;7373999;19;20495;-36
2023/10/09 02:11:39;;;;;;;4.10;2.10;;;;;;;8.92;100.00;101469.75;7395167;19;20444;-36
2023/10/09 02:14:19;;;;;;;5.37;2.10;;;;;;;8.95;100.00;101474.22;7370852;19;20403;-38
2023/10/09 02:17:02;;;;;;;7.50;2.67;;;;;;;8.92;100.00;101485.19;7393286;19;20414;-36
2023/10/09 02:19:34;;;;;;;6.57;2.67;;;;;;;8.94;100.00;101469.88;7372299;19;20431;-36
2023/10/09 02:22:12;;;;;;;6.13;2.70;;;;;;;8.85;100.00;101463.38;7394076;19;20452;-36
2023/10/09 02:24:57;;;;;;;4.80;2.00;;;;;;;8.82;100.00;101465.75;7373273;19;20415;-36
2023/10/09 02:27:46;;;;;;;10.20;1.80;;;;;;;8.84;100.00;101471.91;7394726;19;20411;-37
2023/10/09 02:30:19;;;;;;;4.87;2.07;;;;;;;8.85;100.00;101457.31;7372498;19;20426;-36
2023/10/09 02:32:53;;;;;;;4.27;2.00;;;;;;;8.81;100.00;101445.09;7390852;19;20439;-35
2023/10/09 02:35:28;;;;;;;3.33;1.73;;;;;;;8.79;100.00;101468.16;7373191;19;20427;-36
2023/10/09 02:37:59;;;;;;;5.43;2.10;;;;;;;8.78;100.00;101444.09;7393961;19;20411;-36
2023/10/09 02:40:33;;;;;;;6.80;2.00;;;;;;;8.77;100.00;101434.59;7371727;19;20433;-36
2023/10/09 02:43:05;;;;;;;7.83;2.07;;;;;;;8.82;100.00;101444.28;7393687;19;20449;-35
2023/10/09 02:45:34;;;;;;;4.90;2.37;;;;;;;8.81;100.00;101439.94;7370733;19;20447;-35
2023/10/09 02:48:10;;;;;;;5.80;2.40;;;;;;;8.77;100.00;101429.47;7392108;19;20431;-35
2023/10/09 02:50:44;;;;;;;5.23;2.00;;;;;;;8.75;100.00;101420.78;7370329;19;20426;-36
2023/10/09 02:53:19;;;;;;;4.93;2.13;;;;;;;8.71;100.00;101423.94;7396010;19;20444;-37
2023/10/09 02:56:11;;;;;;;2.93;1.70;;;;;;;8.74;100.00;101430.97;7370990;19;20499;-36
2023/10/09 02:58:48;;;;;;;6.63;2.27;;;;;;;8.71;100.00;101429.09;7393303;19;20399;-36
2023/10/09 03:01:18;;;;;;;5.27;2.40;;;;;;;8.72;100.00;101417.13;7370456;19;20470;-36
2023/10/09 03:03:48;;;;;;;6.23;2.60;;;;;;;8.74;100.00;101413.84;7393364;19;20410;-36
2023/10/09 03:06:24;;;;;;;4.87;2.47;;;;;;;8.73;100.00;101399.19;7372588;19;21037;-36
2023/10/09 03:08:54;;;;;;;5.03;2.43;;;;;;;8.66;100.00;101386.75;7372360;19;20759;-36
2023/10/09 03:11:26;;;;;;;5.87;2.07;;;;;;;8.68;100.00;101395.47;7392623;19;20516;-36
2023/10/09 03:13:58;;;;;;;7.13;2.30;;;;;;;8.62;100.00;101395.97;7371744;19;20409;-36
2023/10/09 03:16:28;;;;;;;4.67;2.33;;;;;;;8.65;100.00;101392.69;7392343;19;20407;-36
2023/10/09 03:18:59;;;;;;;6.10;2.23;;;;;;;8.60;100.00;101379.56;7370386;19;20775;-36
2023/10/09 03:21:29;;;;;;;10.80;2.20;;;;;;;8.62;100.00;101382.25;7391774;19;20518;-36
2023/10/09 03:24:04;;;;;;;6.60;2.50;;;;;;;8.60;100.00;101386.38;7371249;19;20834;-36
2023/10/09 03:26:34;;;;;;;5.60;3.00;;;;;;;8.56;100.00;101379.31;7390758;19;20478;-35
2023/10/09 03:29:10;;;;;;;4.50;2.00;;;;;;;8.57;100.00;101373.34;7365054;19;20405;-36
2023/10/09 03:31:42;;;;;;;9.40;2.83;;;;;;;8.53;100.00;101368.81;7391961;19;20526;-36
2023/10/09 03:34:12;;;;;;;4.67;2.23;;;;;;;8.54;100.00;101368.91;7370398;19;20381;-36
2023/10/09 03:36:43;;;;;;;5.30;2.13;;;;;;;8.50;100.00;101360.09;7390472;19;20411;-38
2023/10/09 03:39:24;;;;;;;3.30;2.00;;;;;;;8.47;100.00;101359.91;7370472;19;20755;-36
2023/10/09 03:41:54;;;;;;;4.97;2.20;;;;;;;8.48;100.00;101354.00;7390865;19;20451;-36
2023/10/09 03:44:28;;;;;;;4.67;2.20;;;;;;;8.46;100.00;101355.56;7370485;19;20399;-37
2023/10/09 03:46:58;;;;;;;9.40;2.43;;;;;;;8.48;100.00;101369.41;7390452;19;20749;-36
2023/10/09 03:49:29;;;;;;;7.27;2.20;;;;;;;8.46;100.00;101363.28;7371369;19;20991;-36
2023/10/09 03:51:59;;;;;;;3.40;1.90;;;;;;;8.43;100.00;101349.34;7390568;19;20522;-36
2023/10/09 03:54:30;;;;;;;6.83;1.83;;;;;;;8.38;100.00;101339.66;7370685;19;20423;-37
2023/10/09 03:57:00;;;;;;;4.30;1.73;;;;;;;8.32;100.00;101344.44;7390901;19;20408;-35
2023/10/09 03:59:33;;;;;;;4.73;2.17;;;;;;;8.37;100.00;101361.03;7377695;19;20415;-36
2023/10/09 04:02:04;;;;;;;6.27;2.00;;;;;;;8.42;100.00;101355.28;7396985;19;20446;-36
2023/10/09 04:04:34;;;;;;;4.33;1.90;;;;;;;8.38;100.00;101355.09;7375307;19;20423;-36
2023/10/09 04:07:06;;;;;;;6.80;2.10;;;;;;;8.37;100.00;101339.59;7400205;19;20824;-35
2023/10/09 04:09:39;;;;;;;3.93;2.00;;;;;;;8.37;100.00;101344.75;7376190;19;20498;-37
2023/10/09 04:12:20;;;;;;;4.53;1.80;;;;;;;8.34;100.00;101344.53;7396790;19;20443;-36
2023/10/09 04:14:54;;;;;;;5.83;2.00;;;;;;;8.37;100.00;101326.72;7374623;19;20430;-35
2023/10/09 04:17:41;;;;;;;5.73;2.20;;;;;;;8.28;100.00;101339.03;7397618;19;20418;-35
2023/10/09 04:23:05;;;;;;;4.67;2.00;;;;;;;8.29;100.00;101335.66;7397278;19;20435;-36
2023/10/09 04:25:41;;;;;;;118.73;75.83;;;;;;;8.73;100.00;101329.72;7375246;19;20422;-42
2023/10/09 04:28:18;;;;;;;5.47;3.37;;;;;;;9.10;100.00;101341.28;7400602;19;20387;-35
2023/10/09 04:30:58;;;;;;;70.67;36.43;;;;;;;9.04;100.00;101331.50;7375083;19;20804;-35
2023/10/09 04:33:42;;;;;;;9.47;5.10;;;;;;;9.24;100.00;101324.03;7398560;19;20387;-36
2023/10/09 04:36:21;;;;;;;8.53;2.23;;;;;;;9.06;100.00;101326.44;7376444;19;20427;-37
2023/10/09 04:39:15;;;;;;;18.93;9.00;;;;;;;9.03;100.00;101319.44;7392412;19;20407;-37
2023/10/09 04:42:18;;;;;;;7.90;3.00;;;;;;;8.95;100.00;101320.69;7398138;19;20442;-36
2023/10/09 04:44:59;;;;;;;6.70;2.80;;;;;;;8.95;100.00;101346.41;7375645;19;20434;-35
2023/10/09 04:47:38;;;;;;;54.23;25.23;;;;;;;9.20;100.00;101352.97;7397698;19;20407;-37
2023/10/09 04:50:11;;;;;;;35.13;16.27;;;;;;;9.35;100.00;101352.06;7374976;19;21002;-35
2023/10/09 04:52:53;;;;;;;87.83;45.07;;;;;;;9.19;100.00;101351.22;7396632;19;20518;-36
2023/10/09 04:55:24;;;;;;;14.53;7.00;;;;;;;9.35;100.00;101354.63;7375901;19;21034;-37
2023/10/09 04:58:09;;;;;;;23.70;11.77;;;;;;;9.62;100.00;101369.84;7398763;19;20418;-36
2023/10/09 05:01:03;;;;;;;8.53;3.77;;;;;;;9.30;100.00;101364.69;7373621;19;20415;-36
2023/10/09 05:03:56;;;;;;;13.13;7.57;;;;;;;9.29;100.00;101379.25;7397937;19;20783;-36
2023/10/09 05:09:13;;;;;;;12.00;6.57;;;;;;;9.50;100.00;101381.28;7371102;19;20388;-37
2023/10/09 05:12:09;;;;;;;3.80;2.10;;;;;;;9.15;100.00;101380.16;7395104;19;20435;-36
2023/10/09 05:14:54;;;;;;;6.90;3.70;;;;;;;9.40;100.00;101369.56;7371462;19;20415;-36
2023/10/09 05:17:25;;;;;;;128.73;66.07;;;;;;;9.23;100.00;101372.88;7398376;19;21018;-36
2023/10/09 05:20:55;;;;;;;7.53;4.40;;;;;;;9.12;100.00;101379.97;7373498;19;20439;-35
2023/10/09 05:22:56;;;;;;;6.93;2.00;;;;;;;8.78;100.00;101397.78;7395017;19;20451;-36
2023/10/09 05:31:02;;;;;;;10.30;4.27;;;;;;;8.72;100.00;101381.97;7369644;19;20407;-35
2023/10/09 05:33:33;;;;;;;7.83;3.60;;;;;;;8.57;100.00;101368.22;7392806;19;20395;-36
2023/10/09 05:38:58;;;;;;;6.90;2.40;;;;;;;8.30;100.00;101355.44;7393368;19;20403;-36
2023/10/09 05:41:46;;;;;;;5.77;2.50;;;;;;;8.31;100.00;101349.50;7372060;19;20467;-36
2023/10/09 05:47:22;;;;;;;5.20;2.20;;;;;;;8.15;100.00;101333.13;7393107;19;20384;-36
2023/10/09 05:50:33;;;;;;;5.20;2.13;;;;;;;8.18;100.00;101337.56;7369043;19;21013;-35
2023/10/09 05:53:34;;;;;;;5.40;1.80;;;;;;;8.23;100.00;101331.94;7384846;19;20442;-38
2023/10/09 06:04:15;;;;;;;6.47;2.10;;;;;;;8.16;100.00;101283.50;7367208;19;20782;-35
2023/10/09 06:06:46;;;;;;;5.20;2.40;;;;;;;8.07;100.00;101300.94;7388679;19;20400;-36
2023/10/09 06:14:57;;;;;;;7.23;2.27;;;;;;;7.81;100.00;101320.78;7364492;19;20451;-36
2023/10/09 06:17:27;;;;;;;4.80;2.20;;;;;;;7.88;100.00;101297.25;7387561;19;20463;-37
2023/10/09 06:20:39;;;;;;;8.73;2.17;;;;;;;7.90;100.00;101285.38;7363341;19;20419;-37
2023/10/09 06:22:57;;;;;;;8.30;4.33;;;;;;;7.94;100.00;101287.34;7386450;19;20443;-36
2023/10/09 06:25:32;;;;;;;5.03;2.50;;;;;;;7.90;100.00;101262.25;7365287;19;20422;-37
2023/10/09 06:28:02;;;;;;;5.50;2.43;;;;;;;7.90;100.00;101274.22;7387329;19;20399;-35
2023/10/09 06:30:34;;;;;;;6.37;2.10;;;;;;;7.95;100.00;101278.84;7363448;19;20416;-36
2023/10/09 06:33:19;;;;;;;5.60;2.50;;;;;;;8.05;100.00;101270.00;7385780;19;20431;-35
2023/10/09 06:36:08;;;;;;;7.10;2.10;;;;;;;8.02;100.00;101253.50;7365112;19;20415;-35
2023/10/09 06:38:51;;;;;;;5.27;2.87;;;;;;;7.94;100.00;101227.34;7387053;19;20397;-35
2023/10/09 06:41:37;;;;;;;9.23;3.47;;;;;;;8.00;100.00;101227.72;7364595;19;20801;-36
2023/10/09 06:44:17;;;;;;;7.23;2.90;;;;;;;8.02;100.00;101223.59;7364243;19;20463;-36
2023/10/09 06:46:52;;;;;;;8.77;2.80;;;;;;;8.13;100.00;101231.03;7386606;19;20396;-37
2023/10/09 06:49:36;;;;;;;5.60;2.50;;;;;;;8.14;100.00;101232.81;7364841;19;20426;-36
2023/10/09 06:52:15;;;;;;;4.50;2.17;;;;;;;8.03;100.00;101237.28;7385280;19;20431;-36
2023/10/09 06:54:50;;;;;;;6.20;2.50;;;;;;;8.00;100.00;101249.97;7362640;19;21041;-36
2023/10/09 07:02:48;;;;;;;6.67;2.40;;;;;;;8.15;100.00;101235.47;7382800;19;20443;-36
2023/10/09 07:05:17;;;;;;;12.43;3.00;;;;;;;8.08;100.00;101228.19;7361265;19;20423;-35
2023/10/09 07:07:54;;;;;;;6.47;3.13;;;;;;;8.09;100.00;101230.84;7381903;19;20410;-37
2023/10/09 07:10:38;;;;;;;6.83;2.80;;;;;;;8.03;100.00;101237.28;7359218;19;20433;-36
2023/10/09 07:13:11;;;;;;;6.03;2.30;;;;;;;8.08;100.00;101243.59;7386238;19;22380;-36
2023/10/09 07:18:40;;;;;;;4.70;2.60;;;;;;;8.07;100.00;101236.69;7388349;19;20399;-37
2023/10/09 07:21:13;;;;;;;6.37;3.80;;;;;;;8.05;100.00;101222.88;7363280;19;20410;-36
2023/10/09 07:23:48;;;;;;;5.53;2.80;;;;;;;7.93;100.00;101231.63;7387064;19;20927;-36
2023/10/09 07:26:23;;;;;;;9.13;2.93;;;;;;;7.95;100.00;101227.44;7365223;19;21007;-37
2023/10/09 07:29:16;;;;;;;8.37;2.87;;;;;;;7.99;100.00;101231.09;7372275;19;20497;-39
2023/10/09 07:31:46;;;;;;;6.40;2.83;;;;;;;8.01;100.00;101236.31;7386042;19;20452;-38
2023/10/09 07:37:03;;;;;;;7.33;2.87;;;;;;;7.96;100.00;101224.09;7392657;19;20407;-36
2023/10/09 07:39:36;;;;;;;7.03;3.20;;;;;;;8.05;100.00;101223.75;7371279;19;20479;-37
2023/10/09 07:44:57;;;;;;;8.33;3.20;;;;;;;7.94;100.00;101219.66;7371373;19;20408;-36
2023/10/09 07:47:45;;;;;;;4.30;2.80;;;;;;;7.94;100.00;101223.13;7388523;19;20412;-36
2023/10/09 07:50:21;;;;;;;7.20;3.57;;;;;;;7.92;100.00;101219.56;7367448;19;20423;-37
2023/10/09 07:52:51;;;;;;;3.70;2.53;;;;;;;8.06;100.00;101228.09;7381883;19;20448;-38
2023/10/09 07:55:39;;;;;;;5.83;3.20;;;;;;;8.19;100.00;101234.84;7355481;19;21375;-41
2023/10/09 07:58:11;;;;;;;5.10;3.23;;;;;;;8.23;100.00;101236.81;7388537;19;20411;-41
2023/10/09 08:03:32;;;;;;;8.10;4.40;;;;;;;8.15;100.00;101225.19;7387647;19;20438;-39
2023/10/09 08:06:06;;;;;;;6.97;3.73;;;;;;;8.16;100.00;101224.38;7367702;19;20436;-39
2023/10/09 08:08:55;;;;;;;8.40;4.30;;;;;;;8.18;100.00;101227.94;7388201;19;20411;-40
2023/10/09 08:11:59;;;;;;;8.27;5.13;;;;;;;8.15;100.00;101225.19;7369135;19;20445;-39
2023/10/09 08:17:20;;;;;;;9.10;4.60;;;;;;;8.28;100.00;101223.31;7391371;19;20410;-40
2023/10/09 08:19:55;;;;;;;11.17;4.40;;;;;;;8.31;100.00;101226.97;7366304;19;21316;-39
2023/10/09 08:25:25;;;;;;;8.57;5.47;;;;;;;8.32;100.00;101227.88;7367947;19;20974;-41
2023/10/09 08:27:57;;;;;;;9.87;4.53;;;;;;;8.33;100.00;101233.09;7389578;19;20399;-42
2023/10/09 08:30:41;;;;;;;8.70;5.10;;;;;;;8.27;100.00;101232.75;7366923;19;20533;-41
2023/10/09 08:36:07;;;;;;;10.37;6.00;;;;;;;8.33;100.00;101245.06;7366849;19;20431;-38
2023/10/09 08:38:42;;;;;;;8.13;5.30;;;;;;;8.34;100.00;101249.41;7389667;19;20410;-40
2023/10/09 08:41:19;;;;;;;9.93;5.40;;;;;;;8.40;100.00;101247.19;7367601;19;21092;-42
2023/10/09 08:43:53;;;;;;;10.20;5.00;;;;;;;8.45;100.00;101242.31;7388760;19;21015;-39
2023/10/09 08:46:26;;;;;;;7.87;5.03;;;;;;;8.46;100.00;101242.41;7369131;19;20431;-40
2023/10/09 08:49:04;;;;;;;7.63;5.70;;;;;;;8.50;100.00;101246.03;7367385;19;20470;-39
2023/10/09 08:51:35;;;;;;;9.30;5.70;;;;;;;8.53;100.00;101233.41;7387285;19;20478;-40
2023/10/09 08:54:05;;;;;;;9.00;5.20;;;;;;;8.58;100.00;101236.22;7365384;19;20903;-39
2023/10/09 08:56:34;;;;;;;6.97;4.43;;;;;;;8.62;100.00;101230.47;7392215;19;20483;-38
2023/10/09 08:59:04;;;;;;;9.10;5.30;;;;;;;8.65;100.00;101228.06;7375800;19;20474;-38
2023/10/09 09:01:34;;;;;;;9.10;4.87;;;;;;;8.76;100.00;101229.56;7395057;19;20408;-38
2023/10/09 09:04:08;;;;;;;8.03;5.10;;;;;;;8.73;100.00;101225.94;7372681;19;20439;-39
2023/10/09 09:06:41;;;;;;;7.87;4.03;;;;;;;8.69;100.00;101224.88;7394531;19;20811;-40
2023/10/09 09:09:16;;;;;;;8.30;5.07;;;;;;;8.77;100.00;101217.59;7373706;19;20403;-40
2023/10/09 09:11:52;;;;;;;6.77;4.70;;;;;;;8.82;100.00;101225.56;7394010;19;20412;-39
2023/10/09 09:14:22;;;;;;;8.53;4.50;;;;;;;8.83;100.00;101230.81;7371877;19;20478;-41
2023/10/09 09:16:52;;;;;;;7.40;4.53;;;;;;;8.88;100.00;101236.22;7394635;19;20467;-39
2023/10/09 09:19:37;;;;;;;9.97;5.30;;;;;;;8.86;100.00;101232.66;7373178;19;20394;-39
2023/10/09 09:22:14;;;;;;;7.23;4.37;;;;;;;8.87;100.00;101229.31;7394286;19;20432;-39
2023/10/09 09:25:00;;;;;;;6.60;4.63;;;;;;;8.90;100.00;101232.94;7372176;19;21030;-39
2023/10/09 09:27:50;;;;;;;6.03;3.93;;;;;;;8.96;100.00;101239.22;7396137;19;20403;-40
2023/10/09 09:30:31;;;;;;;5.57;3.60;;;;;;;8.94;100.00;101231.41;7365187;19;20419;-38
2023/10/09 09:36:05;;;;;;;7.57;4.63;;;;;;;9.00;100.00;101229.19;7365598;19;20448;-39
2023/10/09 09:38:47;;;;;;;6.37;4.20;;;;;;;9.02;100.00;101224.09;7388991;19;20837;-38
2023/10/09 09:41:24;;;;;;;10.30;4.60;;;;;;;9.00;100.00;101216.31;7365193;19;22760;-39
2023/10/09 09:43:56;;;;;;;7.10;4.47;;;;;;;9.07;100.00;101221.81;7365879;19;20439;-40
2023/10/09 09:46:33;;;;;;;21.17;10.00;;;;;;;9.12;100.00;101215.22;7387978;19;20426;-39
2023/10/09 09:49:05;;;;;;;35.63;17.83;;;;;;;9.28;100.00;101212.66;7364966;19;20399;-40
2023/10/09 09:51:37;;;;;;;30.23;14.50;;;;;;;9.34;100.00;101212.13;7385636;19;20412;-38
2023/10/09 09:54:10;;;;;;;6.53;3.97;;;;;;;9.38;100.00;101208.03;7364938;19;20435;-39
2023/10/09 09:56:41;;;;;;;11.47;6.57;;;;;;;9.39;100.00;101204.66;7385179;19;22589;-39
2023/10/09 09:59:21;;;;;;;16.50;8.83;;;;;;;9.52;100.00;101204.50;7365195;19;20407;-40
2023/10/09 10:01:56;;;;;;;9.20;5.30;;;;;;;9.48;100.00;101199.97;7385568;19;20403;-38
2023/10/09 10:04:29;;;;;;;9.10;5.40;;;;;;;9.35;100.00;101197.53;7364353;19;20430;-41
2023/10/09 10:07:04;;;;;;;5.87;4.50;;;;;;;9.35;100.00;101198.44;7386769;19;20491;-39
2023/10/09 10:09:39;;;;;;;5.20;3.80;;;;;;;9.35;100.00;101203.59;7364186;19;20415;-40
2023/10/09 10:12:11;;;;;;;6.17;3.50;;;;;;;9.32;100.00;101199.16;7386419;19;20413;-40
2023/10/09 10:14:56;;;;;;;5.27;3.50;;;;;;;9.36;100.00;101200.22;7363453;19;20430;-39
2023/10/09 10:17:27;;;;;;;5.00;3.27;;;;;;;9.29;100.00;101198.97;7385783;19;20418;-39
2023/10/09 10:22:54;;;;;;;8.60;5.57;;;;;;;9.45;100.00;101195.53;7387285;19;20482;-39
2023/10/09 10:25:41;;;;;;;10.60;5.90;;;;;;;9.51;100.00;101191.53;7363976;19;20486;-38
2023/10/09 10:31:04;;;;;;;4.20;2.60;;;;;;;9.53;100.00;101188.22;7362982;19;20439;-40
2023/10/09 10:34:06;;;;;;;5.13;3.17;;;;;;;9.54;100.00;101182.25;7386108;19;20443;-40
2023/10/09 10:36:36;;;;;;;7.20;4.43;;;;;;;9.67;100.00;101200.94;7364864;19;20427;-37
2023/10/09 10:39:11;;;;;;;5.17;3.60;;;;;;;9.71;100.00;101196.03;7363531;19;20436;-39
2023/10/09 10:41:51;;;;;;;5.40;3.10;;;;;;;9.78;100.00;101196.34;7385534;19;20407;-39
2023/10/09 10:44:37;;;;;;;6.20;3.70;;;;;;;9.87;100.00;101194.25;7362857;19;20830;-39
2023/10/09 10:47:22;;;;;;;9.33;5.80;;;;;;;9.95;100.00;101194.66;7384722;19;20408;-41
2023/10/09 10:49:57;;;;;;;5.67;3.70;;;;;;;9.89;100.00;101195.22;7363816;19;20426;-40
2023/10/09 10:52:41;;;;;;;26.40;10.83;;;;;;;9.89;100.00;101196.94;7385257;19;20415;-39
2023/10/09 10:58:00;;;;;;;5.90;3.00;;;;;;;9.86;100.00;101195.94;7386062;19;20415;-39
2023/10/09 11:03:29;;;;;;;7.43;4.40;;;;;;;9.86;100.00;101198.53;7385142;19;20427;-39
2023/10/09 11:06:13;;;;;;;4.00;2.60;;;;;;;9.82;100.00;101201.75;7361418;19;20970;-39
2023/10/09 11:08:54;;;;;;;6.77;3.03;;;;;;;9.84;100.00;101192.41;7382853;19;20487;-39
2023/10/09 11:11:32;;;;;;;4.90;3.50;;;;;;;9.94;100.00;101190.31;7363723;19;20467;-39
2023/10/09 11:14:14;;;;;;;8.70;3.80;;;;;;;9.96;100.00;101184.41;7361829;19;21073;-38
2023/10/09 11:16:47;;;;;;;6.40;3.80;;;;;;;9.96;100.00;101183.53;7385113;19;20486;-38
2023/10/09 11:19:39;;;;;;;8.50;4.47;;;;;;;10.03;100.00;101190.78;7363680;19;20410;-41
2023/10/09 11:27:40;;;;;;;5.23;3.50;;;;;;;10.01;100.00;101184.66;7384755;19;20967;-39
2023/10/09 11:30:21;;;;;;;11.80;6.23;;;;;;;10.05;100.00;101184.00;7361560;19;20434;-40
2023/10/09 11:32:53;;;;;;;7.30;3.40;;;;;;;10.17;100.00;101182.84;7384510;19;20487;-40
2023/10/09 11:35:27;;;;;;;3.47;2.70;;;;;;;10.21;100.00;101184.78;7362867;19;20422;-40
2023/10/09 11:38:00;;;;;;;6.47;4.00;;;;;;;10.14;100.00;101188.72;7382874;19;20487;-39
2023/10/09 11:40:32;;;;;;;4.53;3.10;;;;;;;10.17;100.00;101183.75;7352845;19;20611;-39
2023/10/09 11:43:12;;;;;;;6.73;3.90;;;;;;;10.16;100.00;101181.09;7384304;19;20443;-39
2023/10/09 11:45:39;;;;;;;7.33;4.37;;;;;;;10.28;100.00;101173.97;7360936;19;20449;-39
2023/10/09 11:48:33;;;;;;;12.20;5.93;;;;;;;10.35;100.00;101173.44;7382736;19;20403;-40
2023/10/09 11:53:49;;;;;;;14.57;7.63;;;;;;;10.36;100.00;101166.63;7384133;19;20431;-40
2023/10/09 11:56:19;;;;;;;9.57;6.00;;;;;;;10.45;100.00;101167.09;7362891;19;20430;-39
2023/10/09 11:58:53;;;;;;;9.10;5.40;;;;;;;10.59;100.00;101175.50;7384097;19;20412;-40
2023/10/09 12:01:23;;;;;;;6.37;4.10;;;;;;;10.61;100.00;101173.88;7362169;19;20446;-41
2023/10/09 12:03:53;;;;;;;5.80;3.80;;;;;;;10.65;100.00;101168.06;7372324;19;20971;-39
2023/10/09 12:06:32;;;;;;;5.37;2.87;;;;;;;10.72;100.00;101168.34;7390328;19;20403;-39
2023/10/09 12:09:05;;;;;;;8.70;5.07;;;;;;;10.72;100.00;101164.06;7367833;19;20403;-39
2023/10/09 12:11:35;;;;;;;5.63;3.30;;;;;;;10.62;100.00;101151.53;7389750;19;20415;-38
2023/10/09 12:14:09;;;;;;;11.40;4.60;;;;;;;10.66;100.00;101149.19;7366979;19;20497;-40
2023/10/09 12:16:49;;;;;;;13.00;4.77;;;;;;;10.66;100.00;101159.50;7385416;19;20415;-41
2023/10/09 12:19:19;;;;;;;4.47;2.50;;;;;;;10.60;100.00;101148.88;7364563;19;20415;-42
2023/10/09 12:21:49;;;;;;;8.13;4.83;;;;;;;10.57;100.00;101160.75;7391312;19;20491;-40
2023/10/09 12:24:18;;;;;;;4.67;2.10;;;;;;;10.46;100.00;101165.41;7367845;19;20429;-42
2023/10/09 12:26:53;;;;;;;7.30;4.67;;;;;;;10.46;100.00;101163.69;7388989;19;20951;-42
2023/10/09 12:29:29;;;;;;;7.80;4.97;;;;;;;10.55;100.00;101165.84;7368578;19;20423;-42
2023/10/09 12:32:01;;;;;;;6.73;4.70;;;;;;;10.65;100.00;101162.91;7389568;19;20402;-44
2023/10/09 12:34:31;;;;;;;6.50;4.13;;;;;;;10.66;100.00;101168.91;7367067;19;20422;-42
2023/10/09 12:37:01;;;;;;;4.23;2.67;;;;;;;10.69;100.00;101169.09;7391222;19;20414;-41
2023/10/09 12:39:33;;;;;;;4.23;2.80;;;;;;;10.72;100.00;101176.09;7368603;19;21997;-41
2023/10/09 12:42:06;;;;;;;5.10;2.40;;;;;;;10.75;100.00;101178.81;7388603;19;20954;-41
2023/10/09 12:44:42;;;;;;;5.33;3.53;;;;;;;10.79;100.00;101181.63;7368525;19;20433;-41
2023/10/09 12:47:13;;;;;;;7.00;3.33;;;;;;;10.82;100.00;101182.56;7388756;19;20403;-41
2023/10/09 12:49:45;;;;;;;4.80;2.60;;;;;;;10.85;100.00;101175.84;7368581;19;20421;-42
2023/10/09 12:52:18;;;;;;;5.00;2.80;;;;;;;10.92;100.00;101172.75;7388829;19;20437;-40
2023/10/09 12:54:48;;;;;;;3.83;2.90;;;;;;;10.94;100.00;101165.09;7366539;19;20579;-40
2023/10/09 12:57:17;;;;;;;3.80;2.80;;;;;;;10.92;100.00;101157.25;7388544;19;20426;-41
2023/10/09 12:59:52;;;;;;;7.17;4.47;;;;;;;10.98;100.00;101156.66;7367007;19;20439;-43
2023/10/09 13:02:30;;;;;;;5.57;4.00;;;;;;;11.05;100.00;101150.09;7390892;19;20409;-40
2023/10/09 13:05:03;;;;;;;7.13;4.30;;;;;;;11.05;100.00;101157.84;7366968;19;20427;-40
2023/10/09 13:07:33;;;;;;;4.40;3.30;;;;;;;11.03;100.00;101146.56;7387324;19;21158;-40
2023/10/09 13:10:13;;;;;;;7.33;4.40;;;;;;;11.07;100.00;101145.88;7366215;19;20427;-42
2023/10/09 13:12:43;;;;;;;7.30;4.50;;;;;;;11.20;100.00;101153.38;7388857;19;20399;-43
2023/10/09 13:15:15;;;;;;;6.00;3.90;;;;;;;11.17;100.00;101155.81;7365338;19;20840;-41
2023/10/09 13:17:45;;;;;;;3.10;2.40;;;;;;;11.17;100.00;101154.91;7388144;19;20842;-41
2023/10/09 13:20:15;;;;;;;4.93;3.63;;;;;;;11.21;100.00;101152.56;7364589;19;20991;-41
2023/10/09 13:22:47;;;;;;;8.60;5.30;;;;;;;11.24;100.00;101153.50;7387409;19;20409;-40